createdAt,value
2023-09-03T00:01:48.555Z,12.53
2023-09-03T00:04:15.065Z,13.67
2023-09-03T00:06:41.538Z,16.23
2023-09-03T00:09:08.081Z,13.93
2023-09-03T00:11:34.512Z,14.10
2023-09-03T00:14:01.098Z,14.60
2023-09-03T00:16:27.769Z,14.30
2023-09-03T00:18:54.759Z,14.77
2023-09-03T00:21:21.280Z,15.13
2023-09-03T00:23:47.765Z,16.30
2023-09-03T00:26:20.361Z,13.77
2023-09-03T00:28:46.839Z,15.20
2023-09-03T00:31:13.351Z,15.40
2023-09-03T00:33:40.115Z,15.23
2023-09-03T00:36:09.863Z,15.10
2023-09-03T00:38:36.821Z,16.23
2023-09-03T00:41:06.383Z,16.93
2023-09-03T00:43:34.613Z,16.20
2023-09-03T00:46:07.037Z,14.67
2023-09-03T00:48:33.747Z,15.03
2023-09-03T00:51:03.596Z,16.03
2023-09-03T00:53:32.127Z,16.40
2023-09-03T00:55:59.083Z,16.17
2023-09-03T00:58:25.942Z,19.10
2023-09-03T01:00:52.586Z,15.47
2023-09-03T01:03:19.612Z,16.00
2023-09-03T01:05:46.156Z,16.80
2023-09-03T01:08:13.458Z,17.77
2023-09-03T01:10:52.674Z,19.00
2023-09-03T01:13:32.297Z,21.27
2023-09-03T01:16:03.151Z,21.83
2023-09-03T01:18:31.374Z,23.10
2023-09-03T01:21:16.052Z,20.50
2023-09-03T01:23:59.361Z,19.43
2023-09-03T01:26:52.091Z,16.70
2023-09-03T01:29:20.491Z,19.13
2023-09-03T01:31:49.024Z,18.73
2023-09-03T01:34:17.192Z,19.07
2023-09-03T01:36:44.343Z,19.43
2023-09-03T01:39:10.839Z,20.27
2023-09-03T01:41:39.370Z,20.13
2023-09-03T01:44:10.149Z,20.70
2023-09-03T01:46:49.448Z,22.50
2023-09-03T01:49:39.401Z,20.50
2023-09-03T01:52:21.021Z,22.57
2023-09-03T01:54:49.908Z,21.63
2023-09-03T01:57:26.381Z,24.37
2023-09-03T01:59:54.768Z,24.70
2023-09-03T02:02:22.198Z,24.50
2023-09-03T02:04:49.293Z,25.97
2023-09-03T02:07:15.845Z,24.30
2023-09-03T02:09:42.255Z,26.43
2023-09-03T02:12:09.597Z,31.93
2023-09-03T02:14:36.582Z,26.53
2023-09-03T02:17:03.378Z,23.50
2023-09-03T02:19:29.991Z,24.90
2023-09-03T02:21:56.532Z,25.30
2023-09-03T02:24:22.981Z,25.10
2023-09-03T02:26:49.470Z,25.70
2023-09-03T02:29:15.901Z,23.77
2023-09-03T02:31:42.460Z,25.20
2023-09-03T02:34:10.194Z,25.80
2023-09-03T02:36:36.773Z,24.13
2023-09-03T02:39:06.127Z,30.77
2023-09-03T02:41:32.814Z,27.40
2023-09-03T02:44:03.859Z,26.03
2023-09-03T02:46:30.622Z,26.93
2023-09-03T02:48:57.269Z,26.67
2023-09-03T02:51:23.835Z,26.33
2023-09-03T02:53:52.515Z,25.80
2023-09-03T02:56:19.402Z,26.40
2023-09-03T02:58:49.610Z,24.27
2023-09-03T03:01:17.591Z,28.17
2023-09-03T03:03:45.001Z,28.93
2023-09-03T03:06:11.924Z,27.23
2023-09-03T03:08:38.630Z,28.90
2023-09-03T03:11:15.910Z,27.80
2023-09-03T03:13:43.939Z,25.27
2023-09-03T03:16:19.697Z,26.80
2023-09-03T03:18:46.726Z,25.10
2023-09-03T03:21:15.746Z,23.17
2023-09-03T03:23:43.523Z,23.40
2023-09-03T03:26:10.061Z,27.80
2023-09-03T03:28:36.832Z,29.87
2023-09-03T03:31:11.857Z,30.20
2023-09-03T03:33:40.496Z,28.87
2023-09-03T03:36:08.616Z,29.30
2023-09-03T03:38:35.446Z,30.90
2023-09-03T03:41:13.002Z,26.60
2023-09-03T03:43:50.628Z,26.87
2023-09-03T03:46:19.546Z,26.70
2023-09-03T03:48:47.322Z,27.27
2023-09-03T03:51:14.297Z,31.07
2023-09-03T03:53:41.594Z,32.70
2023-09-03T03:56:10.153Z,30.10
2023-09-03T03:58:38.381Z,25.97
2023-09-03T04:01:17.437Z,26.23
2023-09-03T04:03:45.585Z,27.37
2023-09-03T04:06:12.328Z,27.20
2023-09-03T04:08:40.254Z,25.90
2023-09-03T04:11:09.160Z,35.90
2023-09-03T04:13:36.685Z,37.70
2023-09-03T04:16:17.171Z,36.60
2023-09-03T04:18:45.702Z,41.37
2023-09-03T04:21:12.947Z,42.80
2023-09-03T04:23:39.748Z,42.83
2023-09-03T04:26:06.423Z,41.67
2023-09-03T04:28:32.988Z,43.43
2023-09-03T04:31:01.813Z,41.90
2023-09-03T04:33:28.702Z,43.67
2023-09-03T04:36:04.966Z,45.20
2023-09-03T04:38:31.821Z,40.93
2023-09-03T04:41:02.446Z,44.23
2023-09-03T04:43:30.388Z,42.90
2023-09-03T04:45:56.981Z,44.33
2023-09-03T04:48:23.871Z,44.67
2023-09-03T04:50:50.611Z,46.13
2023-09-03T04:53:17.082Z,47.17
2023-09-03T04:55:43.665Z,44.80
2023-09-03T04:58:10.325Z,47.67
2023-09-03T05:00:37.171Z,47.07
2023-09-03T05:03:06.121Z,45.27
2023-09-03T05:05:39.789Z,44.70
2023-09-03T05:08:06.432Z,46.10
2023-09-03T05:10:32.956Z,45.70
2023-09-03T05:12:59.458Z,46.60
2023-09-03T05:15:26.036Z,45.30
2023-09-03T05:17:53.650Z,45.97
2023-09-03T05:20:20.181Z,42.50
2023-09-03T05:22:46.655Z,42.73
2023-09-03T05:25:13.153Z,44.47
2023-09-03T05:27:39.642Z,44.37
2023-09-03T05:30:07.330Z,44.00
2023-09-03T05:32:33.897Z,45.97
2023-09-03T05:35:00.470Z,43.97
2023-09-03T05:37:26.932Z,44.80
2023-09-03T05:39:53.369Z,40.90
2023-09-03T05:42:20.049Z,41.60
2023-09-03T05:44:49.426Z,40.47
2023-09-03T05:47:19.458Z,40.60
2023-09-03T05:49:47.325Z,42.87
2023-09-03T05:52:13.998Z,41.47
2023-09-03T05:54:40.485Z,38.30
2023-09-03T05:57:06.976Z,40.53
2023-09-03T05:59:33.462Z,41.97
2023-09-03T06:01:59.993Z,41.20
2023-09-03T06:04:26.500Z,42.17
2023-09-03T06:06:53.006Z,42.13
2023-09-03T06:09:20.062Z,41.50
2023-09-03T06:11:48.172Z,41.73
2023-09-03T06:14:15.304Z,37.93
2023-09-03T06:16:41.871Z,39.07
2023-09-03T06:19:08.377Z,38.03
2023-09-03T06:21:34.880Z,39.03
2023-09-03T06:24:01.331Z,39.47
2023-09-03T06:26:27.830Z,39.90
2023-09-03T06:28:54.323Z,38.97
2023-09-03T06:31:20.987Z,43.90
2023-09-03T06:33:47.997Z,40.00
2023-09-03T06:36:16.154Z,39.97
2023-09-03T06:38:45.699Z,38.07
2023-09-03T06:41:12.263Z,41.47
2023-09-03T06:43:39.757Z,39.37
2023-09-03T06:46:06.640Z,40.57
2023-09-03T06:48:33.137Z,42.07
2023-09-03T06:50:59.677Z,41.17
2023-09-03T06:53:26.358Z,38.10
2023-09-03T06:55:53.556Z,38.63
2023-09-03T06:58:20.229Z,39.70
2023-09-03T07:00:50.271Z,40.10
2023-09-03T07:03:17.761Z,39.57
2023-09-03T07:05:44.322Z,40.00
2023-09-03T07:08:10.881Z,34.17
2023-09-03T07:10:38.111Z,35.00
2023-09-03T07:13:04.926Z,35.93
2023-09-03T07:15:31.394Z,38.40
2023-09-03T07:17:57.947Z,38.03
2023-09-03T07:20:24.517Z,41.83
2023-09-03T07:22:51.073Z,37.43
2023-09-03T07:25:17.631Z,37.50
2023-09-03T07:27:44.207Z,38.97
2023-09-03T07:30:11.352Z,39.87
2023-09-03T07:32:38.770Z,35.17
2023-09-03T07:35:07.519Z,37.50
2023-09-03T07:37:34.840Z,37.33
2023-09-03T07:40:01.357Z,35.50
2023-09-03T07:42:27.905Z,37.37
2023-09-03T07:44:54.701Z,36.70
2023-09-03T07:47:21.679Z,38.10
2023-09-03T07:49:48.519Z,39.70
2023-09-03T07:52:15.402Z,36.83
2023-09-03T07:54:42.011Z,37.70
2023-09-03T07:57:08.821Z,36.43
2023-09-03T07:59:36.102Z,38.50
2023-09-03T08:02:03.443Z,37.83
2023-09-03T08:04:30.423Z,40.00
2023-09-03T08:06:57.466Z,36.93
2023-09-03T08:09:25.561Z,36.20
2023-09-03T08:11:52.963Z,36.83
2023-09-03T08:14:19.659Z,35.53
2023-09-03T08:16:46.437Z,37.10
2023-09-03T08:19:13.667Z,40.53
2023-09-03T08:21:40.399Z,37.10
2023-09-03T08:24:07.304Z,32.47
2023-09-03T08:26:33.800Z,30.93
2023-09-03T08:29:00.404Z,32.33
2023-09-03T08:31:27.237Z,32.03
2023-09-03T08:33:55.506Z,29.80
2023-09-03T08:36:23.425Z,30.23
2023-09-03T08:38:50.315Z,32.43
2023-09-03T08:41:19.477Z,34.90
2023-09-03T08:43:49.630Z,28.70
2023-09-03T08:46:18.492Z,29.23
2023-09-03T08:48:50.690Z,30.73
2023-09-03T08:51:18.429Z,26.50
2023-09-03T08:53:45.787Z,25.63
2023-09-03T08:56:12.570Z,22.87
2023-09-03T08:58:39.516Z,23.10
2023-09-03T09:01:09.408Z,25.20
2023-09-03T09:03:37.841Z,21.90
2023-09-03T09:06:07.935Z,21.67
2023-09-03T09:08:35.959Z,20.03
2023-09-03T09:11:06.120Z,18.90
2023-09-03T09:13:39.877Z,18.00
2023-09-03T09:16:07.136Z,15.70
2023-09-03T09:18:34.070Z,23.30
2023-09-03T09:21:02.160Z,46.20
2023-09-03T09:23:34.222Z,32.33
2023-09-03T09:26:02.395Z,18.63
2023-09-03T09:28:29.072Z,14.60
2023-09-03T09:30:57.731Z,13.73
2023-09-03T09:33:25.135Z,14.00
2023-09-03T09:35:52.250Z,12.63
2023-09-03T09:38:19.423Z,13.30
2023-09-03T09:40:47.991Z,13.37
2023-09-03T09:43:14.783Z,13.40
2023-09-03T09:45:50.782Z,34.33
2023-09-03T09:48:17.912Z,16.50
2023-09-03T09:50:45.929Z,16.10
2023-09-03T09:53:25.707Z,20.50
2023-09-03T09:56:00.632Z,15.20
2023-09-03T09:58:41.087Z,14.27
2023-09-03T10:01:08.901Z,16.97
2023-09-03T10:03:47.203Z,25.10
2023-09-03T10:06:15.193Z,22.00
2023-09-03T10:08:43.257Z,21.80
2023-09-03T10:11:10.225Z,16.43
2023-09-03T10:13:40.392Z,15.13
2023-09-03T10:16:11.503Z,13.83
2023-09-03T10:18:49.541Z,16.10
2023-09-03T10:21:42.666Z,33.60
2023-09-03T10:24:16.353Z,20.73
2023-09-03T10:26:46.168Z,14.63
2023-09-03T10:29:16.371Z,12.17
2023-09-03T10:31:43.789Z,7.83
2023-09-03T10:34:16.126Z,7.30
2023-09-03T10:37:09.134Z,22.37
2023-09-03T10:39:37.071Z,22.70
2023-09-03T10:42:15.846Z,9.10
2023-09-03T10:44:43.938Z,7.00
2023-09-03T10:47:12.710Z,6.40
2023-09-03T10:49:43.999Z,10.87
2023-09-03T10:52:36.326Z,15.00
2023-09-03T10:55:17.260Z,6.07
2023-09-03T10:57:46.025Z,5.20
2023-09-03T11:00:22.033Z,4.80
2023-09-03T11:02:50.799Z,5.70
2023-09-03T11:05:22.903Z,8.00
2023-09-03T11:08:10.427Z,4.37
2023-09-03T11:10:36.893Z,4.27
2023-09-03T11:13:05.583Z,4.40
2023-09-03T11:15:33.222Z,4.80
2023-09-03T11:18:00.363Z,4.90
2023-09-03T11:20:49.391Z,5.40
2023-09-03T11:23:18.593Z,4.80
2023-09-03T11:25:45.924Z,4.70
2023-09-03T11:28:13.367Z,3.90
2023-09-03T11:30:41.438Z,4.67
2023-09-03T11:33:10.289Z,2.90
2023-09-03T11:35:43.985Z,3.67
2023-09-03T11:38:11.224Z,3.10
2023-09-03T11:40:38.476Z,3.63
2023-09-03T11:43:08.865Z,3.33
2023-09-03T11:45:35.522Z,3.53
2023-09-03T11:48:07.293Z,3.83
2023-09-03T11:50:37.362Z,3.47
2023-09-03T11:53:06.279Z,4.00
2023-09-03T11:55:47.370Z,3.27
2023-09-03T11:58:17.377Z,4.00
2023-09-03T12:00:44.526Z,3.20
2023-09-03T12:03:11.931Z,3.43
2023-09-03T12:05:38.828Z,6.10
2023-09-03T12:08:06.099Z,4.23
2023-09-03T12:10:33.002Z,4.40
2023-09-03T12:13:00.826Z,3.00
2023-09-03T12:15:27.819Z,3.20
2023-09-03T12:17:54.524Z,2.93
2023-09-03T12:20:34.291Z,4.37
2023-09-03T12:23:11.493Z,4.73
2023-09-03T12:25:39.119Z,3.87
2023-09-03T12:28:06.171Z,4.27
2023-09-03T12:30:58.610Z,3.53
2023-09-03T12:33:26.635Z,3.73
2023-09-03T12:36:10.068Z,3.63
2023-09-03T12:39:04.531Z,3.60
2023-09-03T12:41:35.624Z,3.50
2023-09-03T12:44:07.755Z,3.23
2023-09-03T12:46:36.007Z,3.77
2023-09-03T12:49:06.575Z,4.03
2023-09-03T12:51:38.506Z,3.37
2023-09-03T12:54:06.069Z,3.33
2023-09-03T12:56:33.761Z,3.00
2023-09-03T12:59:05.908Z,3.00
2023-09-03T13:01:39.219Z,3.20
2023-09-03T13:04:08.444Z,3.43
2023-09-03T13:06:35.697Z,3.47
2023-09-03T13:09:02.192Z,3.80
2023-09-03T13:11:28.725Z,3.00
2023-09-03T13:13:55.232Z,3.50
2023-09-03T13:16:23.656Z,2.97
2023-09-03T13:18:50.949Z,3.10
2023-09-03T13:21:17.994Z,2.83
2023-09-03T13:23:44.509Z,2.60
2023-09-03T13:26:11.242Z,3.17
2023-09-03T13:28:41.358Z,2.80
2023-09-03T13:31:08.803Z,3.90
2023-09-03T13:33:37.242Z,3.37
2023-09-03T13:36:06.033Z,3.87
2023-09-03T13:38:33.670Z,3.23
2023-09-03T13:41:00.609Z,3.37
2023-09-03T13:43:27.502Z,3.57
2023-09-03T13:45:59.511Z,3.27
2023-09-03T13:48:26.672Z,3.30
2023-09-03T13:50:53.800Z,3.10
2023-09-03T13:53:20.765Z,3.60
2023-09-03T13:55:47.948Z,3.77
2023-09-03T13:58:14.647Z,2.83
2023-09-03T14:00:42.038Z,3.23
2023-09-03T14:03:09.626Z,3.40
2023-09-03T14:05:36.315Z,3.60
2023-09-03T14:08:03.405Z,3.40
2023-09-03T14:10:29.868Z,3.33
2023-09-03T14:12:56.398Z,3.23
2023-09-03T14:15:23.230Z,3.57
2023-09-03T14:17:49.731Z,2.70
2023-09-03T14:20:16.399Z,3.00
2023-09-03T14:22:44.474Z,3.23
2023-09-03T14:25:11.169Z,3.07
2023-09-03T14:27:37.801Z,3.10
2023-09-03T14:30:05.027Z,2.50
2023-09-03T14:32:31.600Z,2.60
2023-09-03T14:34:58.171Z,2.93
2023-09-03T14:37:24.670Z,2.70
2023-09-03T14:39:51.200Z,2.73
2023-09-03T14:42:17.700Z,2.90
2023-09-03T14:44:44.213Z,2.80
2023-09-03T14:47:10.685Z,2.90
2023-09-03T14:49:45.107Z,3.03
2023-09-03T14:52:13.968Z,3.07
2023-09-03T14:54:40.709Z,3.43
2023-09-03T14:57:09.273Z,3.27
2023-09-03T14:59:36.114Z,3.97
2023-09-03T15:02:02.765Z,3.90
2023-09-03T15:04:31.616Z,3.43
2023-09-03T15:06:58.684Z,3.60
2023-09-03T15:09:25.412Z,4.70
2023-09-03T15:11:51.997Z,4.10
2023-09-03T15:14:18.488Z,4.23
2023-09-03T15:16:45.526Z,4.07
2023-09-03T15:19:12.223Z,4.03
2023-09-03T15:21:38.853Z,4.07
2023-09-03T15:24:05.568Z,6.73
2023-09-03T15:26:32.126Z,21.10
2023-09-03T15:28:58.677Z,13.67
2023-09-03T15:31:25.618Z,6.30
2023-09-03T15:33:52.244Z,5.27
2023-09-03T15:36:18.859Z,4.20
2023-09-03T15:38:45.574Z,3.83
2023-09-03T15:41:12.150Z,3.90
2023-09-03T15:43:38.642Z,8.03
2023-09-03T15:46:05.386Z,13.20
2023-09-03T15:48:33.514Z,16.13
2023-09-03T15:51:00.232Z,5.70
2023-09-03T15:53:27.153Z,3.70
2023-09-03T15:55:57.536Z,3.90
2023-09-03T15:58:24.613Z,3.73
2023-09-03T16:00:51.540Z,3.93
2023-09-03T16:03:20.636Z,3.90
2023-09-03T16:05:47.630Z,4.00
2023-09-03T16:08:14.207Z,5.80
2023-09-03T16:10:40.720Z,4.40
2023-09-03T16:13:08.608Z,3.93
2023-09-03T16:15:40.497Z,3.70
2023-09-03T16:18:07.404Z,3.40
2023-09-03T16:20:37.601Z,3.00
2023-09-03T16:23:04.616Z,2.97
2023-09-03T16:25:31.471Z,4.60
2023-09-03T16:27:58.405Z,3.10
2023-09-03T16:30:25.193Z,3.10
2023-09-03T16:32:51.848Z,3.50
2023-09-03T16:35:20.472Z,3.57
2023-09-03T16:37:47.209Z,4.43
2023-09-03T16:40:14.951Z,4.40
2023-09-03T16:42:42.005Z,4.00
2023-09-03T16:45:09.069Z,3.53
2023-09-03T16:47:35.630Z,4.10
2023-09-03T16:50:05.752Z,3.70
2023-09-03T16:52:34.081Z,3.43
2023-09-03T16:55:00.997Z,3.93
2023-09-03T16:57:28.708Z,3.70
2023-09-03T16:59:55.265Z,4.10
2023-09-03T17:02:21.930Z,11.67
2023-09-03T17:04:48.600Z,7.40
2023-09-03T17:07:15.123Z,5.80
2023-09-03T17:09:41.629Z,4.30
2023-09-03T17:12:08.170Z,4.07
2023-09-03T17:14:34.817Z,3.77
2023-09-03T17:17:06.347Z,4.77
2023-09-03T17:19:33.363Z,4.40
2023-09-03T17:21:59.930Z,4.03
2023-09-03T17:24:26.592Z,4.60
2023-09-03T17:26:53.497Z,4.40
2023-09-03T17:29:20.097Z,6.60
2023-09-03T17:31:46.620Z,7.77
2023-09-03T17:34:13.153Z,7.10
2023-09-03T17:36:39.613Z,4.83
2023-09-03T17:39:06.155Z,4.97
2023-09-03T17:41:34.003Z,7.70
2023-09-03T17:44:01.120Z,11.17
2023-09-03T17:46:27.792Z,5.10
2023-09-03T17:48:54.517Z,5.30
2023-09-03T17:51:21.251Z,5.50
2023-09-03T17:53:47.785Z,5.10
2023-09-03T17:56:14.313Z,4.80
2023-09-03T17:58:40.790Z,5.03
2023-09-03T18:01:07.370Z,4.53
2023-09-03T18:03:34.051Z,4.90
2023-09-03T18:06:07.645Z,4.97
2023-09-03T18:08:34.332Z,4.90
2023-09-03T18:11:00.853Z,5.30
2023-09-03T18:13:27.350Z,5.67
2023-09-03T18:16:00.314Z,5.80
2023-09-03T18:18:26.874Z,15.67
2023-09-03T18:20:59.028Z,10.87
2023-09-03T18:23:25.555Z,6.90
2023-09-03T18:25:52.106Z,6.13
2023-09-03T18:28:18.662Z,5.20
2023-09-03T18:30:45.154Z,7.53
2023-09-03T18:33:11.650Z,10.17
2023-09-03T18:35:38.245Z,16.70
2023-09-03T18:38:04.960Z,16.63
2023-09-03T18:40:32.258Z,16.13
2023-09-03T18:42:58.864Z,13.40
2023-09-03T18:45:26.223Z,10.60
2023-09-03T18:47:53.046Z,7.97
2023-09-03T18:50:19.687Z,7.63
2023-09-03T18:52:46.199Z,7.07
2023-09-03T18:55:12.752Z,6.83
2023-09-03T18:57:39.318Z,6.10
2023-09-03T19:00:08.671Z,6.10
2023-09-03T19:02:35.222Z,6.17
2023-09-03T19:05:01.838Z,6.13
2023-09-03T19:07:28.334Z,5.60
2023-09-03T19:09:54.875Z,5.80
2023-09-03T19:12:21.348Z,5.77
2023-09-03T19:14:48.395Z,6.27
2023-09-03T19:17:14.873Z,6.07
2023-09-03T19:19:41.483Z,6.23
2023-09-03T19:22:08.074Z,11.57
2023-09-03T19:24:35.280Z,10.57
2023-09-03T19:27:01.719Z,8.33
2023-09-03T19:29:28.232Z,5.27
2023-09-03T19:31:54.865Z,5.60
2023-09-03T19:34:25.471Z,5.60
2023-09-03T19:36:53.665Z,5.07
2023-09-03T19:39:20.304Z,5.43
2023-09-03T19:41:51.453Z,5.20
2023-09-03T19:44:18.757Z,5.63
2023-09-03T19:46:45.360Z,6.40
2023-09-03T19:49:11.906Z,5.13
2023-09-03T19:51:38.469Z,5.40
2023-09-03T19:54:05.204Z,5.33
2023-09-03T19:56:32.434Z,6.10
2023-09-03T19:58:59.366Z,6.00
2023-09-03T20:01:26.807Z,6.80
2023-09-03T20:03:53.922Z,8.30
2023-09-03T20:06:21.218Z,9.10
2023-09-03T20:08:47.761Z,9.10
2023-09-03T20:11:16.951Z,6.83
2023-09-03T20:13:44.517Z,5.90
2023-09-03T20:16:11.461Z,6.40
2023-09-03T20:18:38.186Z,5.30
2023-09-03T20:21:05.133Z,5.83
2023-09-03T20:23:32.182Z,7.73
2023-09-03T20:26:06.835Z,6.43
2023-09-03T20:28:46.021Z,5.90
2023-09-03T20:31:14.861Z,5.40
2023-09-03T20:33:41.603Z,5.10
2023-09-03T20:36:15.129Z,4.90
2023-09-03T20:38:41.814Z,4.47
2023-09-03T20:41:08.827Z,5.00
2023-09-03T20:43:35.646Z,4.20
2023-09-03T20:46:02.794Z,4.87
2023-09-03T20:48:29.719Z,4.50
2023-09-03T20:51:01.377Z,4.37
2023-09-03T20:53:28.121Z,4.47
2023-09-03T20:55:55.813Z,3.90
2023-09-03T20:58:23.902Z,10.30
2023-09-03T21:00:50.876Z,15.30
2023-09-03T21:03:17.901Z,6.03
2023-09-03T21:05:54.227Z,4.93
2023-09-03T21:08:22.271Z,4.73
2023-09-03T21:11:00.071Z,4.20
2023-09-03T21:13:27.447Z,4.17
2023-09-03T21:15:56.076Z,4.60
2023-09-03T21:18:27.896Z,5.33
2023-09-03T21:21:01.583Z,4.40
2023-09-03T21:23:37.405Z,4.30
2023-09-03T21:26:05.580Z,4.60
2023-09-03T21:28:45.607Z,4.40
2023-09-03T21:31:18.177Z,5.03
2023-09-03T21:33:46.528Z,4.50
2023-09-03T21:36:20.940Z,4.87
2023-09-03T21:38:48.311Z,4.37
2023-09-03T21:41:14.837Z,4.83
2023-09-03T21:43:49.934Z,4.30
2023-09-03T21:46:16.480Z,4.30
2023-09-03T21:48:43.042Z,4.60
2023-09-03T21:51:18.694Z,4.63
2023-09-03T21:53:46.553Z,5.40
2023-09-03T21:56:13.126Z,4.70
2023-09-03T21:58:39.666Z,4.60
2023-09-03T22:01:06.280Z,15.57
2023-09-03T22:03:32.922Z,7.13
2023-09-03T22:06:02.921Z,5.00
2023-09-03T22:08:29.437Z,4.97
2023-09-03T22:10:55.954Z,4.80
2023-09-03T22:13:22.446Z,4.90
2023-09-03T22:15:48.996Z,4.10
2023-09-03T22:18:15.578Z,3.97
2023-09-03T22:20:42.097Z,4.50
2023-09-03T22:23:08.580Z,4.43
2023-09-03T22:25:35.062Z,4.50
2023-09-03T22:28:02.808Z,6.47
2023-09-03T22:30:29.438Z,4.33
2023-09-03T22:32:57.077Z,4.30
2023-09-03T22:35:23.652Z,4.67
2023-09-03T22:37:50.173Z,3.90
2023-09-03T22:40:16.742Z,4.13
2023-09-03T22:42:43.327Z,4.00
2023-09-03T22:45:10.110Z,3.60
2023-09-03T22:47:36.720Z,4.20
2023-09-03T22:50:03.574Z,4.80
2023-09-03T22:52:30.165Z,4.00
2023-09-03T22:54:56.739Z,3.90
2023-09-03T22:57:24.369Z,4.10
2023-09-03T22:59:51.463Z,4.17
2023-09-03T23:02:18.333Z,3.80
2023-09-03T23:04:44.921Z,3.83
2023-09-03T23:07:12.467Z,3.97
2023-09-03T23:09:39.060Z,4.20
2023-09-03T23:12:05.916Z,4.03
2023-09-03T23:14:32.514Z,3.40
2023-09-03T23:16:59.095Z,3.70
2023-09-03T23:19:25.621Z,4.07
2023-09-03T23:21:52.251Z,3.50
2023-09-03T23:24:19.083Z,4.10
2023-09-03T23:26:45.930Z,3.47
2023-09-03T23:29:12.553Z,4.10
2023-09-03T23:31:39.113Z,3.70
2023-09-03T23:34:05.688Z,3.63
2023-09-03T23:36:32.508Z,4.00
2023-09-03T23:38:59.007Z,4.03
2023-09-03T23:41:26.022Z,4.10
2023-09-03T23:43:52.569Z,3.67
2023-09-03T23:46:19.065Z,3.80
2023-09-03T23:48:45.612Z,3.77
2023-09-03T23:51:12.091Z,3.40
2023-09-03T23:53:38.774Z,3.60
2023-09-03T23:56:05.268Z,3.87
2023-09-03T23:58:31.755Z,3.90
